Time;durP1;ratioP1;P1;durP2;ratioP2;P2;SDS_P1;SDS_P2;PMS_P1;PMS_P2;Temp;Humidity;BMP_temperature;BMP_pressure;BME280_temperature;BME280_humidity;BME280_pressure;Samples;Min_cycle;Max_cycle;Signal;HPM_P1;HPM_P2
2022/04/04 00:01:33;;;;;;;14.45;5.95;;;;;;;;;;5088676;28;20048;-62
2022/04/04 00:03:59;;;;;;;12.60;5.70;;;;;;;;;;5089843;28;20134;-62
2022/04/04 00:06:29;;;;;;;;;;;;;;;;;;5088389;28;20080;-64
2022/04/04 00:08:56;;;;;;;15.73;5.45;;;;;;;;;;5087902;28;19973;-62
2022/04/04 00:11:22;;;;;;;12.77;5.78;;;;;;;;;;5088785;28;20142;-63
2022/04/04 00:13:48;;;;;;;16.60;6.53;;;;;;;;;;5088816;28;20091;-62
2022/04/04 00:16:14;;;;;;;12.70;5.68;;;;;;;;;;5087870;28;20051;-61
2022/04/04 00:18:40;;;;;;;12.50;5.60;;;;;;;;;;5088859;28;20131;-61
2022/04/04 00:21:06;;;;;;;16.92;5.97;;;;;;;;;;5088168;28;20063;-62
2022/04/04 00:23:33;;;;;;;11.50;5.60;;;;;;;;;;5089335;28;20044;-62
2022/04/04 00:25:59;;;;;;;15.75;6.28;;;;;;;;;;5085693;28;20040;-61
2022/04/04 00:28:25;;;;;;;11.88;5.72;;;;;;;;;;5088869;28;20446;-61
2022/04/04 00:30:51;;;;;;;12.73;5.22;;;;;;;;;;5087957;28;20146;-62
2022/04/04 00:33:17;;;;;;;12.25;5.32;;;;;;;;;;5088110;28;20216;-63
2022/04/04 00:35:43;;;;;;;14.32;5.82;;;;;;;;;;5093269;28;20052;-61
2022/04/04 00:38:10;;;;;;;13.95;5.28;;;;;;;;;;5086182;28;20054;-61
2022/04/04 00:40:37;;;;;;;11.90;5.65;;;;;;;;;;5088049;28;20127;-62
2022/04/04 00:43:03;;;;;;;14.02;5.63;;;;;;;;;;5087746;28;20393;-61
2022/04/04 00:45:29;;;;;;;13.23;5.88;;;;;;;;;;5095465;28;20051;-62
2022/04/04 00:47:56;;;;;;;13.55;5.88;;;;;;;;;;5108296;28;20385;-63
2022/04/04 00:50:22;;;;;;;14.30;6.32;;;;;;;;;;5105325;28;20179;-62
2022/04/04 00:52:49;;;;;;;14.57;6.13;;;;;;;;;;5086358;28;20040;-61
2022/04/04 00:55:18;;;;;;;15.15;6.57;;;;;;;;;;5070029;28;20058;-61
2022/04/04 00:57:45;;;;;;;14.48;6.43;;;;;;;;;;5104794;28;20050;-61
2022/04/04 01:00:11;;;;;;;;;;;;;;;;;;5103536;28;20052;-63
2022/04/04 01:02:38;;;;;;;13.30;5.88;;;;;;;;;;5087401;28;19996;-63
2022/04/04 01:05:04;;;;;;;18.05;7.20;;;;;;;;;;5087239;28;20120;-62
2022/04/04 01:07:30;;;;;;;;;;;;;;;;;;5092158;28;20048;-62
2022/04/04 01:09:56;;;;;;;14.82;7.60;;;;;;;;;;5086466;28;20020;-63
2022/04/04 01:12:22;;;;;;;15.32;7.70;;;;;;;;;;5087977;28;20059;-65
2022/04/04 01:14:49;;;;;;;15.30;7.43;;;;;;;;;;5088003;28;20127;-61
2022/04/04 01:17:15;;;;;;;14.13;8.50;;;;;;;;;;5091361;28;20220;-62
2022/04/04 01:19:42;;;;;;;17.05;8.27;;;;;;;;;;5092903;28;20048;-63
2022/04/04 01:22:10;;;;;;;14.82;8.82;;;;;;;;;;5086679;28;20059;-62
2022/04/04 01:24:38;;;;;;;18.65;8.77;;;;;;;;;;5088122;28;20135;-64
2022/04/04 01:27:05;;;;;;;17.33;9.35;;;;;;;;;;5087551;28;20048;-63
2022/04/04 01:29:31;;;;;;;16.83;9.38;;;;;;;;;;5088088;28;20040;-61
2022/04/04 01:31:57;;;;;;;;;;;;;;;;;;5086116;28;20048;-61
2022/04/04 01:34:23;;;;;;;17.25;9.95;;;;;;;;;;5084060;28;19949;-63
2022/04/04 01:36:49;;;;;;;;;;;;;;;;;;5087202;28;20450;-63
2022/04/04 01:39:15;;;;;;;19.85;11.20;;;;;;;;;;5088135;28;19992;-62
2022/04/04 01:41:42;;;;;;;20.60;11.18;;;;;;;;;;5088152;28;20079;-64
2022/04/04 01:44:08;;;;;;;20.63;12.63;;;;;;;;;;5086900;28;20059;-63
2022/04/04 01:46:34;;;;;;;21.15;12.57;;;;;;;;;;5087207;28;20087;-65
2022/04/04 01:49:02;;;;;;;25.17;12.70;;;;;;;;;;5087262;28;20487;-64
2022/04/04 01:51:29;;;;;;;21.02;13.18;;;;;;;;;;5087928;28;20124;-62
2022/04/04 01:53:55;;;;;;;24.00;14.90;;;;;;;;;;5091664;28;20096;-64
2022/04/04 01:56:22;;;;;;;23.25;14.43;;;;;;;;;;5101077;28;20039;-64
2022/04/04 01:58:49;;;;;;;27.65;14.50;;;;;;;;;;5111728;28;20047;-62
2022/04/04 02:01:19;;;;;;;26.58;14.93;;;;;;;;;;5097224;28;20116;-63
2022/04/04 02:03:49;;;;;;;29.20;16.88;;;;;;;;;;5091532;28;20039;-63
2022/04/04 02:06:15;;;;;;;24.35;15.88;;;;;;;;;;5090928;28;20097;-65
2022/04/04 02:08:42;;;;;;;31.73;16.73;;;;;;;;;;5101140;28;20070;-64
2022/04/04 02:11:08;;;;;;;30.65;18.00;;;;;;;;;;5111170;28;20448;-63
2022/04/04 02:13:34;;;;;;;30.58;18.65;;;;;;;;;;5110136;28;20494;-63
2022/04/04 02:16:02;;;;;;;30.85;18.20;;;;;;;;;;5096940;28;20052;-62
2022/04/04 02:18:28;;;;;;;29.45;19.45;;;;;;;;;;5091734;28;20147;-62
2022/04/04 02:20:54;;;;;;;;;;;;;;;;;;5091696;28;20100;-62
2022/04/04 02:23:20;;;;;;;29.23;17.67;;;;;;;;;;5088846;28;19995;-63
2022/04/04 02:25:47;;;;;;;26.75;18.20;;;;;;;;;;5090671;28;20079;-63
2022/04/04 02:28:13;;;;;;;28.35;17.50;;;;;;;;;;5100315;28;20063;-63
2022/04/04 02:30:40;;;;;;;27.02;18.63;;;;;;;;;;5108286;28;20489;-63
2022/04/04 02:33:06;;;;;;;29.02;18.05;;;;;;;;;;5089128;28;20195;-62
2022/04/04 02:35:35;;;;;;;27.08;18.67;;;;;;;;;;5091341;28;20044;-62
2022/04/04 02:38:02;;;;;;;26.95;17.60;;;;;;;;;;5093302;28;20078;-62
2022/04/04 02:40:28;;;;;;;29.15;18.45;;;;;;;;;;5110716;28;20043;-62
2022/04/04 02:42:55;;;;;;;27.80;18.80;;;;;;;;;;5094334;28;20054;-63
2022/04/04 02:45:21;;;;;;;30.52;18.90;;;;;;;;;;5091191;28;20471;-63
2022/04/04 02:47:47;;;;;;;27.88;19.15;;;;;;;;;;5090369;27;20068;-64
2022/04/04 02:50:14;;;;;;;29.15;19.70;;;;;;;;;;5089679;28;20459;-62
2022/04/04 02:52:40;;;;;;;30.45;20.83;;;;;;;;;;5090585;28;20062;-63
2022/04/04 02:57:52;;;;;;;27.55;20.02;;;;;;;;;;5108834;28;20483;-61
2022/04/04 03:00:19;;;;;;;30.42;19.77;;;;;;;;;;5104654;28;20197;-62
2022/04/04 03:02:49;;;;;;;29.10;20.52;;;;;;;;;;5088889;28;20446;-64
2022/04/04 03:05:15;;;;;;;31.02;21.05;;;;;;;;;;5088133;28;20078;-63
2022/04/04 03:07:42;;;;;;;29.73;20.45;;;;;;;;;;5090350;28;20155;-61
2022/04/04 03:10:08;;;;;;;30.50;20.75;;;;;;;;;;5090310;28;20048;-65
2022/04/04 03:12:34;;;;;;;;;;;;;;;;;;5088759;28;20036;-61
2022/04/04 03:15:00;;;;;;;32.55;20.33;;;;;;;;;;5089485;28;20399;-62
2022/04/04 03:17:27;;;;;;;;;;;;;;;;;;5091471;28;20119;-62
2022/04/04 03:19:54;;;;;;;32.95;19.42;;;;;;;;;;5090109;28;20007;-63
2022/04/04 03:22:20;;;;;;;34.50;21.17;;;;;;;;;;5089378;28;20557;-63
2022/04/04 03:24:46;;;;;;;31.00;19.85;;;;;;;;;;5089920;28;20185;-63
2022/04/04 03:27:13;;;;;;;31.48;20.40;;;;;;;;;;5090542;28;20060;-63
2022/04/04 03:29:40;;;;;;;32.50;20.83;;;;;;;;;;5088920;28;20048;-63
2022/04/04 03:32:06;;;;;;;;;;;;;;;;;;5090405;28;20055;-61
2022/04/04 03:34:32;;;;;;;34.60;20.02;;;;;;;;;;5088866;28;20401;-61
2022/04/04 03:36:58;;;;;;;35.00;21.05;;;;;;;;;;5090009;28;20048;-61
2022/04/04 03:39:24;;;;;;;32.17;20.80;;;;;;;;;;5088869;28;20047;-62
2022/04/04 03:41:53;;;;;;;37.50;20.35;;;;;;;;;;5096071;28;20130;-62
2022/04/04 03:44:19;;;;;;;32.05;21.23;;;;;;;;;;5088846;28;20063;-61
2022/04/04 03:46:45;;;;;;;35.17;22.30;;;;;;;;;;5089801;28;20147;-62
2022/04/04 03:49:11;;;;;;;38.53;22.38;;;;;;;;;;5088927;28;20210;-65
2022/04/04 03:51:37;;;;;;;35.88;21.80;;;;;;;;;;5086954;28;20519;-62
2022/04/04 03:54:03;;;;;;;36.83;21.35;;;;;;;;;;5089294;28;20364;-62
2022/04/04 03:56:29;;;;;;;35.67;22.75;;;;;;;;;;5096772;28;20503;-63
2022/04/04 03:58:56;;;;;;;41.80;23.30;;;;;;;;;;5109869;28;20063;-68
2022/04/04 04:01:24;;;;;;;38.65;23.15;;;;;;;;;;5093091;28;20127;-71
2022/04/04 04:03:50;;;;;;;35.60;22.38;;;;;;;;;;5088987;28;20092;-70
2022/04/04 04:06:16;;;;;;;36.97;23.70;;;;;;;;;;5089089;28;20542;-63
2022/04/04 04:08:44;;;;;;;37.22;23.10;;;;;;;;;;5088384;28;20044;-65
2022/04/04 04:11:11;;;;;;;36.35;25.20;;;;;;;;;;5089394;28;20132;-62
2022/04/04 04:13:37;;;;;;;;;;;;;;;;;;5086321;28;20119;-65
2022/04/04 04:16:04;;;;;;;37.03;23.67;;;;;;;;;;5086960;28;19931;-64
2022/04/04 04:18:30;;;;;;;;;;;;;;;;;;5103849;28;20190;-68
2022/04/04 04:20:56;;;;;;;40.58;25.23;;;;;;;;;;5091138;28;20019;-64
2022/04/04 04:23:22;;;;;;;47.72;26.70;;;;;;;;;;5088219;28;20097;-63
2022/04/04 04:25:49;;;;;;;45.05;25.30;;;;;;;;;;5089134;28;20044;-66
2022/04/04 04:28:15;;;;;;;;;;;;;;;;;;5089941;28;20480;-64
2022/04/04 04:30:41;;;;;;;42.83;25.70;;;;;;;;;;5088393;28;19931;-66
2022/04/04 04:33:07;;;;;;;46.40;26.92;;;;;;;;;;5088824;28;20048;-66
2022/04/04 04:35:34;;;;;;;45.42;28.48;;;;;;;;;;5087669;28;20044;-67
2022/04/04 04:38:00;;;;;;;;;;;;;;;;;;5089643;28;20190;-70
2022/04/04 04:40:27;;;;;;;46.83;27.20;;;;;;;;;;5087913;28;19920;-69
2022/04/04 04:42:54;;;;;;;47.20;27.50;;;;;;;;;;5088356;28;20185;-64
2022/04/04 04:45:20;;;;;;;43.75;27.05;;;;;;;;;;5087174;28;20047;-64
2022/04/04 04:47:47;;;;;;;50.72;28.77;;;;;;;;;;5085186;28;20121;-66
2022/04/04 04:50:14;;;;;;;41.80;26.27;;;;;;;;;;5088095;28;20158;-66
2022/04/04 04:52:41;;;;;;;40.53;25.67;;;;;;;;;;5086671;28;20040;-69
2022/04/04 04:55:07;;;;;;;42.83;26.33;;;;;;;;;;5086238;28;20151;-67
2022/04/04 04:57:33;;;;;;;44.22;28.30;;;;;;;;;;5085788;28;20093;-66
2022/04/04 05:00:03;;;;;;;39.03;25.15;;;;;;;;;;5087138;28;20075;-68
2022/04/04 05:02:29;;;;;;;40.88;25.85;;;;;;;;;;5086391;28;20064;-64
2022/04/04 05:04:55;;;;;;;41.05;25.90;;;;;;;;;;5087422;28;20040;-64
2022/04/04 05:07:21;;;;;;;40.85;25.17;;;;;;;;;;5086255;28;20080;-66
2022/04/04 05:09:47;;;;;;;48.42;26.30;;;;;;;;;;5085641;28;20115;-67
2022/04/04 05:12:13;;;;;;;40.88;24.40;;;;;;;;;;5087472;28;20375;-68
2022/04/04 05:14:40;;;;;;;45.15;27.58;;;;;;;;;;5085582;28;20047;-66
2022/04/04 05:17:06;;;;;;;;;;;;;;;;;;5094169;28;20135;-66
2022/04/04 05:19:32;;;;;;;44.30;28.17;;;;;;;;;;5085849;28;19951;-65
2022/04/04 05:21:58;;;;;;;43.97;27.75;;;;;;;;;;5086524;28;20051;-65
2022/04/04 05:24:24;;;;;;;39.60;25.15;;;;;;;;;;5086314;28;20052;-64
2022/04/04 05:26:50;;;;;;;43.80;25.15;;;;;;;;;;5088645;28;20083;-67
2022/04/04 05:29:18;;;;;;;35.90;21.00;;;;;;;;;;5091001;28;20054;-64
2022/04/04 05:31:48;;;;;;;38.65;21.70;;;;;;;;;;5090646;28;20039;-68
2022/04/04 05:34:14;;;;;;;28.27;16.92;;;;;;;;;;5089955;28;20040;-64
2022/04/04 05:36:40;;;;;;;30.42;19.38;;;;;;;;;;5088498;28;20048;-63
2022/04/04 05:39:07;;;;;;;28.85;17.38;;;;;;;;;;5089932;28;20044;-65
2022/04/04 05:41:36;;;;;;;27.85;17.73;;;;;;;;;;5087874;28;20047;-64
2022/04/04 05:44:03;;;;;;;30.17;17.67;;;;;;;;;;5089278;28;20151;-65
2022/04/04 05:46:28;;;;;;;;;;;;;;;;;;5087713;28;20079;-64
2022/04/04 05:48:55;;;;;;;30.85;18.08;;;;;;;;;;5109060;28;19969;-64
2022/04/04 05:51:21;;;;;;;31.55;18.27;;;;;;;;;;5110376;28;20065;-65
2022/04/04 05:53:47;;;;;;;30.52;17.05;;;;;;;;;;5072521;28;20051;-62
2022/04/04 05:56:13;;;;;;;27.83;15.00;;;;;;;;;;5080278;28;20047;-63
2022/04/04 05:58:40;;;;;;;27.00;15.48;;;;;;;;;;5086587;28;20119;-63
2022/04/04 06:01:08;;;;;;;32.85;16.95;;;;;;;;;;5084313;28;20395;-64
2022/04/04 06:03:37;;;;;;;24.70;14.15;;;;;;;;;;5086120;28;20044;-63
2022/04/04 06:06:06;;;;;;;18.67;10.32;;;;;;;;;;5072270;28;20075;-67
2022/04/04 06:08:32;;;;;;;21.30;10.98;;;;;;;;;;5077381;28;20487;-64
2022/04/04 06:10:58;;;;;;;25.08;10.55;;;;;;;;;;5063412;28;20055;-62
2022/04/04 06:13:26;;;;;;;21.67;11.65;;;;;;;;;;5080566;28;20081;-64
2022/04/04 06:15:54;;;;;;;19.88;10.02;;;;;;;;;;5076105;28;20131;-67
2022/04/04 06:18:20;;;;;;;20.60;7.85;;;;;;;;;;5091392;27;20047;-63
2022/04/04 06:20:46;;;;;;;21.13;10.10;;;;;;;;;;5087979;28;20044;-65
2022/04/04 06:23:12;;;;;;;17.05;8.50;;;;;;;;;;5076123;28;20057;-64
2022/04/04 06:25:41;;;;;;;17.80;6.90;;;;;;;;;;5067750;28;20072;-63
2022/04/04 06:28:08;;;;;;;18.05;8.10;;;;;;;;;;5079978;28;20119;-64
2022/04/04 06:30:35;;;;;;;19.92;9.57;;;;;;;;;;5081214;28;20052;-65
2022/04/04 06:33:04;;;;;;;15.13;8.05;;;;;;;;;;5085104;28;20056;-63
2022/04/04 06:35:30;;;;;;;19.63;9.00;;;;;;;;;;5101697;27;20136;-65
2022/04/04 06:37:56;;;;;;;17.38;8.55;;;;;;;;;;5076276;28;20164;-65
2022/04/04 06:40:22;;;;;;;18.15;7.97;;;;;;;;;;5085980;28;20137;-67
2022/04/04 06:42:49;;;;;;;16.00;7.85;;;;;;;;;;5083092;28;20048;-62
2022/04/04 06:45:17;;;;;;;17.42;9.00;;;;;;;;;;5079616;28;20429;-63
2022/04/04 06:47:43;;;;;;;16.63;8.23;;;;;;;;;;5081230;28;20144;-63
2022/04/04 06:50:10;;;;;;;18.13;7.78;;;;;;;;;;5087122;28;20336;-62
2022/04/04 06:52:36;;;;;;;;;;;;;;;;;;5085891;28;20151;-62
2022/04/04 06:55:02;;;;;;;18.60;9.00;;;;;;;;;;5079713;28;19943;-63
2022/04/04 06:57:28;;;;;;;17.80;8.10;;;;;;;;;;5074864;28;20044;-62
2022/04/04 06:59:54;;;;;;;21.40;8.90;;;;;;;;;;5066420;28;20072;-62
2022/04/04 07:02:22;;;;;;;15.80;7.47;;;;;;;;;;5074642;28;20064;-62
2022/04/04 07:04:49;;;;;;;19.63;9.80;;;;;;;;;;5073866;28;20048;-63
2022/04/04 07:07:17;;;;;;;24.20;9.88;;;;;;;;;;5082149;28;20110;-62
2022/04/04 07:09:44;;;;;;;18.13;9.77;;;;;;;;;;5087027;28;20044;-64
2022/04/04 07:12:10;;;;;;;20.20;11.60;;;;;;;;;;5080993;28;20052;-62
2022/04/04 07:14:36;;;;;;;22.58;12.15;;;;;;;;;;5085547;28;20123;-63
2022/04/04 07:17:06;;;;;;;23.38;13.88;;;;;;;;;;5084207;28;20062;-62
2022/04/04 07:19:34;;;;;;;25.50;15.00;;;;;;;;;;5085071;28;20050;-63
2022/04/04 07:22:03;;;;;;;24.35;14.68;;;;;;;;;;5084727;28;20254;-63
2022/04/04 07:24:29;;;;;;;23.15;14.40;;;;;;;;;;5082038;28;20040;-63
2022/04/04 07:26:56;;;;;;;24.98;14.65;;;;;;;;;;5086137;28;20421;-65
2022/04/04 07:29:22;;;;;;;;;;;;;;;;;;5079474;28;20150;-63
2022/04/04 07:31:51;;;;;;;19.52;13.43;;;;;;;;;;5078039;28;19927;-67
2022/04/04 07:34:17;;;;;;;28.02;16.45;;;;;;;;;;5077201;28;20068;-63
2022/04/04 07:36:43;;;;;;;26.95;17.88;;;;;;;;;;5084774;28;20117;-66
2022/04/04 07:39:09;;;;;;;35.78;18.17;;;;;;;;;;5082677;28;20086;-64
2022/04/04 07:41:35;;;;;;;27.33;14.85;;;;;;;;;;5088210;28;20040;-63
2022/04/04 07:44:02;;;;;;;31.00;19.65;;;;;;;;;;5081857;28;20048;-64
2022/04/04 07:46:29;;;;;;;25.42;15.93;;;;;;;;;;5086288;28;20554;-66
2022/04/04 07:48:55;;;;;;;31.25;18.90;;;;;;;;;;5085129;28;20128;-65
2022/04/04 07:51:21;;;;;;;33.15;18.77;;;;;;;;;;5070593;28;20050;-62
2022/04/04 07:53:48;;;;;;;31.20;19.67;;;;;;;;;;5079504;28;20067;-64
2022/04/04 07:56:14;;;;;;;30.60;19.25;;;;;;;;;;5071287;28;20419;-63
2022/04/04 07:58:40;;;;;;;29.98;18.40;;;;;;;;;;5070413;28;20385;-63
2022/04/04 08:01:06;;;;;;;25.30;15.82;;;;;;;;;;5068118;28;20137;-64
2022/04/04 08:03:32;;;;;;;27.90;17.23;;;;;;;;;;5078092;28;20079;-65
2022/04/04 08:05:58;;;;;;;27.05;16.83;;;;;;;;;;5081719;28;20466;-64
2022/04/04 08:08:24;;;;;;;23.98;14.90;;;;;;;;;;5068262;28;20080;-68
2022/04/04 08:10:50;;;;;;;27.40;16.95;;;;;;;;;;5066822;28;20144;-63
2022/04/04 08:13:17;;;;;;;28.30;18.08;;;;;;;;;;5079376;28;20514;-65
2022/04/04 08:15:45;;;;;;;24.90;16.13;;;;;;;;;;5065871;28;20322;-65
2022/04/04 08:18:14;;;;;;;29.50;17.48;;;;;;;;;;5087159;28;20169;-65
2022/04/04 08:20:41;;;;;;;30.23;17.88;;;;;;;;;;5065253;28;20044;-63
2022/04/04 08:23:08;;;;;;;19.65;11.98;;;;;;;;;;5067612;28;20511;-63
2022/04/04 08:25:35;;;;;;;25.30;13.45;;;;;;;;;;5071926;28;20060;-62
2022/04/04 08:28:05;;;;;;;21.95;13.27;;;;;;;;;;5074622;28;20482;-64
2022/04/04 08:30:31;;;;;;;27.02;15.63;;;;;;;;;;5071041;28;20444;-66
2022/04/04 08:32:58;;;;;;;22.08;13.32;;;;;;;;;;5083975;28;20466;-63
2022/04/04 08:35:24;;;;;;;19.77;10.00;;;;;;;;;;5082450;28;20119;-68
2022/04/04 08:37:50;;;;;;;;;;;;;;;;;;5073802;28;20397;-63
2022/04/04 08:40:18;;;;;;;18.40;10.90;;;;;;;;;;5074814;28;20036;-65
2022/04/04 08:42:45;;;;;;;19.98;11.57;;;;;;;;;;5071199;28;20108;-64
2022/04/04 08:45:11;;;;;;;;;;;;;;;;;;5075806;28;20074;-64
2022/04/04 08:47:38;;;;;;;21.52;12.50;;;;;;;;;;5049897;28;20007;-66
2022/04/04 08:50:04;;;;;;;15.02;9.07;;;;;;;;;;5067003;28;20128;-64
2022/04/04 08:52:30;;;;;;;17.27;9.30;;;;;;;;;;5088482;28;20043;-63
2022/04/04 08:54:57;;;;;;;17.83;9.50;;;;;;;;;;5083207;28;20132;-66
2022/04/04 08:57:23;;;;;;;13.63;8.02;;;;;;;;;;5067946;28;20040;-67
2022/04/04 08:59:49;;;;;;;15.68;7.90;;;;;;;;;;5072909;28;20600;-63
2022/04/04 09:02:15;;;;;;;15.82;8.23;;;;;;;;;;5072389;28;20067;-65
2022/04/04 09:04:41;;;;;;;;;;;;;;;;;;5094314;28;20062;-63
2022/04/04 09:07:13;;;;;;;14.43;8.63;;;;;;;;;;5091975;28;19919;-63
2022/04/04 09:09:39;;;;;;;16.00;8.07;;;;;;;;;;5085437;28;20106;-64
2022/04/04 09:12:08;;;;;;;16.02;7.97;;;;;;;;;;5072567;28;20465;-65
2022/04/04 09:14:56;;;;;;;15.05;8.57;;;;;;;;;;5086985;28;20075;-62
2022/04/04 09:17:27;;;;;;;15.02;8.57;;;;;;;;;;5074326;28;20159;-64
2022/04/04 09:19:54;;;;;;;16.42;8.38;;;;;;;;;;5090708;28;20399;-62
2022/04/04 09:22:20;;;;;;;14.32;7.68;;;;;;;;;;5078498;28;20112;-64
2022/04/04 09:24:48;;;;;;;16.60;8.05;;;;;;;;;;5087488;28;20448;-62
2022/04/04 09:27:22;;;;;;;13.38;7.22;;;;;;;;;;5091089;28;20044;-65
2022/04/04 09:29:48;;;;;;;11.98;6.25;;;;;;;;;;5084134;28;20087;-63
2022/04/04 09:32:15;;;;;;;15.18;6.18;;;;;;;;;;5067604;28;20204;-62
2022/04/04 09:35:02;;;;;;;14.18;6.50;;;;;;;;;;5087160;28;20052;-66
2022/04/04 09:37:33;;;;;;;16.17;7.40;;;;;;;;;;5091674;28;20495;-63
2022/04/04 09:40:25;;;;;;;14.18;7.13;;;;;;;;;;5088755;28;20062;-62
2022/04/04 09:42:52;;;;;;;15.15;6.80;;;;;;;;;;5086109;28;20058;-63
2022/04/04 09:45:19;;;;;;;14.52;7.53;;;;;;;;;;5070526;28;20040;-64
2022/04/04 09:47:53;;;;;;;27.23;8.38;;;;;;;;;;5085831;28;20143;-63
2022/04/04 09:50:37;;;;;;;28.52;9.95;;;;;;;;;;5080326;28;20040;-63
2022/04/04 09:53:05;;;;;;;11.90;6.10;;;;;;;;;;5088259;28;20040;-63
2022/04/04 09:55:33;;;;;;;15.23;6.47;;;;;;;;;;5082399;28;20052;-67
2022/04/04 09:58:00;;;;;;;15.13;6.18;;;;;;;;;;5075117;28;20411;-62
2022/04/04 10:00:26;;;;;;;18.30;7.07;;;;;;;;;;5072579;28;20220;-65
2022/04/04 10:02:56;;;;;;;16.33;7.75;;;;;;;;;;5068523;28;20493;-64
2022/04/04 10:05:27;;;;;;;22.17;6.97;;;;;;;;;;5086332;28;20242;-64
2022/04/04 10:07:57;;;;;;;13.82;6.05;;;;;;;;;;5069780;28;20468;-62
2022/04/04 10:10:28;;;;;;;14.27;6.30;;;;;;;;;;5086284;28;20047;-63
2022/04/04 10:12:55;;;;;;;15.93;6.88;;;;;;;;;;5085001;28;20119;-64
2022/04/04 10:15:26;;;;;;;15.30;7.30;;;;;;;;;;5080273;28;20077;-62
2022/04/04 10:17:52;;;;;;;16.67;7.68;;;;;;;;;;5074221;28;20136;-64
2022/04/04 10:20:19;;;;;;;14.10;7.20;;;;;;;;;;5079168;28;20141;-65
2022/04/04 10:22:46;;;;;;;15.18;7.88;;;;;;;;;;5077593;28;20373;-65
2022/04/04 10:25:14;;;;;;;15.60;7.70;;;;;;;;;;5076116;28;20052;-64
2022/04/04 10:27:41;;;;;;;14.98;6.65;;;;;;;;;;5080029;28;20048;-64
2022/04/04 10:30:07;;;;;;;;;;;;;;;;;;5075559;28;20059;-64
2022/04/04 10:32:34;;;;;;;13.63;6.70;;;;;;;;;;5089751;28;20245;-67
2022/04/04 10:35:12;;;;;;;14.52;6.07;;;;;;;;;;5076723;28;20128;-64
2022/04/04 10:37:45;;;;;;;15.68;6.72;;;;;;;;;;5069432;28;20044;-63
2022/04/04 10:40:31;;;;;;;15.57;6.25;;;;;;;;;;5069798;28;20053;-62
2022/04/04 10:43:02;;;;;;;12.82;5.68;;;;;;;;;;5070119;28;20045;-64
2022/04/04 10:45:30;;;;;;;13.68;6.18;;;;;;;;;;5075204;28;20052;-64
2022/04/04 10:48:06;;;;;;;14.85;6.43;;;;;;;;;;5065134;28;20151;-63
2022/04/04 10:50:33;;;;;;;13.55;6.28;;;;;;;;;;5080193;28;20066;-64
2022/04/04 10:53:04;;;;;;;14.20;5.85;;;;;;;;;;5083256;28;20070;-64
2022/04/04 10:55:41;;;;;;;14.95;5.95;;;;;;;;;;5060276;28;20428;-65
2022/04/04 10:58:16;;;;;;;11.50;4.82;;;;;;;;;;5086185;28;20055;-64
2022/04/04 11:00:56;;;;;;;14.30;5.70;;;;;;;;;;5075455;28;20036;-63
2022/04/04 11:03:28;;;;;;;11.98;5.65;;;;;;;;;;5088818;28;20036;-64
2022/04/04 11:09:02;;;;;;;10.50;4.13;;;;;;;;;;5087538;28;20058;-65
2022/04/04 11:11:49;;;;;;;12.55;4.38;;;;;;;;;;5075730;28;20056;-64
2022/04/04 11:14:37;;;;;;;12.82;4.40;;;;;;;;;;5088188;28;20123;-63
2022/04/04 11:17:09;;;;;;;12.30;4.25;;;;;;;;;;5085988;28;21500;-64
2022/04/04 11:19:45;;;;;;;11.82;4.00;;;;;;;;;;5070088;28;20040;-62
2022/04/04 11:22:18;;;;;;;12.85;4.53;;;;;;;;;;5077226;28;20201;-64
2022/04/04 11:24:49;;;;;;;11.10;4.40;;;;;;;;;;5088710;28;20435;-63
2022/04/04 11:27:15;;;;;;;10.73;4.68;;;;;;;;;;5088442;28;20090;-64
2022/04/04 11:29:41;;;;;;;9.88;3.92;;;;;;;;;;5083941;28;20087;-64
2022/04/04 11:32:08;;;;;;;8.85;3.25;;;;;;;;;;5082443;28;20036;-63
2022/04/04 11:34:39;;;;;;;10.32;3.30;;;;;;;;;;5086501;28;20375;-62
2022/04/04 11:37:05;;;;;;;10.27;3.63;;;;;;;;;;5095532;28;20493;-65
2022/04/04 11:39:32;;;;;;;9.80;3.35;;;;;;;;;;5083217;28;20127;-61
2022/04/04 11:42:01;;;;;;;9.77;3.40;;;;;;;;;;5085965;28;20047;-64
2022/04/04 11:44:27;;;;;;;10.02;3.58;;;;;;;;;;5085980;28;20040;-64
2022/04/04 11:47:20;;;;;;;9.05;3.17;;;;;;;;;;5086537;28;20132;-68
2022/04/04 11:49:46;;;;;;;13.00;3.35;;;;;;;;;;5086167;28;20040;-64
2022/04/04 11:52:18;;;;;;;9.95;3.30;;;;;;;;;;5087022;28;20044;-66
2022/04/04 11:54:44;;;;;;;9.40;3.10;;;;;;;;;;5087284;28;20058;-63
2022/04/04 11:57:10;;;;;;;8.25;3.30;;;;;;;;;;5086401;28;20059;-62
2022/04/04 11:59:36;;;;;;;;;;;;;;;;;;5080710;28;20048;-62
2022/04/04 12:02:07;;;;;;;9.65;3.58;;;;;;;;;;5075713;28;19920;-64
2022/04/04 12:04:34;;;;;;;9.98;3.05;;;;;;;;;;5081443;28;20040;-64
2022/04/04 12:07:01;;;;;;;8.85;3.15;;;;;;;;;;5085102;28;20091;-62
2022/04/04 12:09:30;;;;;;;6.70;3.00;;;;;;;;;;5083156;28;20094;-65
2022/04/04 12:12:23;;;;;;;7.13;2.45;;;;;;;;;;5075727;28;20085;-64
2022/04/04 12:14:49;;;;;;;7.80;2.83;;;;;;;;;;5064523;28;20150;-65
2022/04/04 12:17:24;;;;;;;8.95;3.08;;;;;;;;;;5101810;28;20128;-64
2022/04/04 12:19:52;;;;;;;9.18;3.20;;;;;;;;;;5084227;28;20219;-64
2022/04/04 12:25:07;;;;;;;9.93;3.20;;;;;;;;;;5084587;28;20090;-62
2022/04/04 12:27:33;;;;;;;9.73;3.17;;;;;;;;;;5083048;28;20466;-64
2022/04/04 12:30:06;;;;;;;9.35;3.30;;;;;;;;;;5086015;28;20097;-64
2022/04/04 12:32:33;;;;;;;7.20;2.88;;;;;;;;;;5108182;28;20079;-65
2022/04/04 12:35:06;;;;;;;12.57;3.90;;;;;;;;;;5087111;28;20485;-64
2022/04/04 12:37:43;;;;;;;8.70;3.60;;;;;;;;;;5085348;28;20476;-64
2022/04/04 12:40:23;;;;;;;9.27;3.45;;;;;;;;;;5088950;28;20048;-65
2022/04/04 12:42:54;;;;;;;9.40;3.85;;;;;;;;;;5089046;28;20048;-63
2022/04/04 12:45:20;;;;;;;8.60;3.72;;;;;;;;;;5106757;28;20118;-64
2022/04/04 12:47:57;;;;;;;11.15;3.95;;;;;;;;;;5080336;28;20060;-64
2022/04/04 12:50:25;;;;;;;11.25;5.00;;;;;;;;;;5067873;28;20449;-62
2022/04/04 12:52:57;;;;;;;9.65;3.75;;;;;;;;;;5099847;28;20109;-64
2022/04/04 12:55:28;;;;;;;10.23;4.03;;;;;;;;;;5067694;28;20149;-64
2022/04/04 12:57:54;;;;;;;12.20;4.40;;;;;;;;;;5099975;28;20064;-63
2022/04/04 13:00:29;;;;;;;14.25;4.93;;;;;;;;;;5066335;28;20135;-64
2022/04/04 13:02:56;;;;;;;11.93;4.70;;;;;;;;;;5068137;28;20080;-65
2022/04/04 13:05:25;;;;;;;12.70;5.20;;;;;;;;;;5067448;28;20064;-65
2022/04/04 13:07:53;;;;;;;10.98;4.97;;;;;;;;;;5068312;28;20146;-63
2022/04/04 13:10:20;;;;;;;11.05;4.40;;;;;;;;;;5066966;28;20084;-64
2022/04/04 13:12:46;;;;;;;13.65;5.28;;;;;;;;;;5067324;28;20064;-64
2022/04/04 13:15:13;;;;;;;13.02;5.63;;;;;;;;;;5083167;28;20441;-66
2022/04/04 13:17:40;;;;;;;14.23;5.40;;;;;;;;;;5067545;28;20365;-66
2022/04/04 13:20:12;;;;;;;14.25;5.60;;;;;;;;;;5068218;28;20127;-66
2022/04/04 13:22:39;;;;;;;14.13;5.78;;;;;;;;;;5067158;28;20139;-66
2022/04/04 13:25:05;;;;;;;13.32;5.60;;;;;;;;;;5100076;28;20060;-66
2022/04/04 13:27:34;;;;;;;15.43;6.88;;;;;;;;;;5100231;28;20048;-64
2022/04/04 13:30:00;;;;;;;20.30;7.63;;;;;;;;;;5100486;28;20056;-64
2022/04/04 13:32:26;;;;;;;15.85;6.05;;;;;;;;;;5067388;28;20053;-65
2022/04/04 13:34:53;;;;;;;16.33;6.30;;;;;;;;;;5067853;28;20063;-62
2022/04/04 13:37:19;;;;;;;16.48;5.60;;;;;;;;;;5083119;28;20044;-64
2022/04/04 13:39:49;;;;;;;18.55;6.53;;;;;;;;;;5067324;28;20044;-68
2022/04/04 13:42:15;;;;;;;;;;;;;;;;;;5068275;28;20040;-64
2022/04/04 13:44:42;;;;;;;13.23;6.10;;;;;;;;;;5065855;28;19924;-64
2022/04/04 13:47:08;;;;;;;14.43;5.95;;;;;;;;;;5066776;28;20461;-63
2022/04/04 13:49:35;;;;;;;16.38;6.30;;;;;;;;;;5069654;28;20060;-67
2022/04/04 13:52:02;;;;;;;;;;;;;;;;;;5071802;28;20088;-66
2022/04/04 13:54:28;;;;;;;15.50;5.82;;;;;;;;;;5071007;28;19920;-64
2022/04/04 13:56:58;;;;;;;18.70;7.80;;;;;;;;;;5069691;28;20556;-67
2022/04/04 13:59:24;;;;;;;16.15;6.72;;;;;;;;;;5071233;28;20156;-66
2022/04/04 14:01:52;;;;;;;14.20;6.07;;;;;;;;;;5070946;28;20049;-62
2022/04/04 14:04:18;;;;;;;19.23;7.05;;;;;;;;;;5071405;28;20058;-65
2022/04/04 14:06:47;;;;;;;16.40;6.10;;;;;;;;;;5068749;28;20173;-63
2022/04/04 14:09:15;;;;;;;17.33;7.10;;;;;;;;;;5069445;28;20037;-63
2022/04/04 14:11:41;;;;;;;15.55;6.25;;;;;;;;;;5071017;28;20388;-63
2022/04/04 14:14:09;;;;;;;16.00;5.75;;;;;;;;;;5071505;28;20087;-65
2022/04/04 14:16:37;;;;;;;25.25;7.53;;;;;;;;;;5071883;28;20333;-63
2022/04/04 14:19:04;;;;;;;23.52;7.70;;;;;;;;;;5071647;28;20044;-64
2022/04/04 14:21:30;;;;;;;27.00;8.27;;;;;;;;;;5070715;28;20127;-64
2022/04/04 14:23:57;;;;;;;22.15;8.63;;;;;;;;;;5071509;28;20036;-64
2022/04/04 14:26:23;;;;;;;27.48;8.82;;;;;;;;;;5087234;28;20044;-65
2022/04/04 14:28:49;;;;;;;26.35;8.18;;;;;;;;;;5071554;28;20787;-65
2022/04/04 14:31:16;;;;;;;24.38;8.10;;;;;;;;;;5071158;28;20127;-63
2022/04/04 14:33:42;;;;;;;31.50;8.85;;;;;;;;;;5102644;28;20336;-63
2022/04/04 14:36:08;;;;;;;22.27;7.85;;;;;;;;;;5070969;28;20067;-62
2022/04/04 14:38:37;;;;;;;37.30;10.40;;;;;;;;;;5070642;28;20098;-64
2022/04/04 14:41:04;;;;;;;26.55;7.82;;;;;;;;;;5071728;28;20082;-66
2022/04/04 14:43:33;;;;;;;38.60;10.32;;;;;;;;;;5070326;28;20036;-64
2022/04/04 14:45:59;;;;;;;40.03;10.13;;;;;;;;;;5103013;28;20114;-63